Hedley, Canada
Current Conditions -  °F | °C
As of 11:14 AM on Saturday 20 Dec 2014 (Local Time) from CYYF Reporting Station
Rain Showers Rain Showers  
Wind Chill: 29°   Ceiling: 4300
Heat Index: 39°   Visibility: 15mi
Dew Point: 36°   Wind: 22mph
Humidity: 87%   Direction: 150°SSE
Pressure: 29.7"   Gusts: 30mph
Location:  49.35°N, 120.08°W
Report Text: CYYF 201914Z 15019G26KT 15SM VCSH SCT019 BKN043 OVC082 04/02 A2970 RMK SF3SC3AC2 PRESFR SLP068
Loading
Personal Weather Stations






























Interactive Weather Map New forecast layout! Learn more

10-Day Weather Forecast

Advertisements
Track Severe Weather on mobile